ADDS METAR Data INFO
IDs: Format: Raw Decoded Include TAF

Data at: 2330 UTC 15 Dec 2017

PAQH 152256Z AUTO 11028G34KT 10SM FEW020 OVC031 02/00 A2867 RMK AO2 PK WND 11034/2254 SLP709 T00170000 PWINO FZRANO $
PAQH 152156Z AUTO 10025G34KT 10SM FEW018 BKN028 OVC060 02/01 A2868 RMK AO2 PK WND 10034/2152 SLP713 T00220006 PWINO FZRANO $
PAQH 152056Z AUTO 08015KT 10SM BKN025 BKN030 BKN034 02/00 A2874 RMK AO2 PK WND 08029/2009 SLP731 T00170000 56023 PWINO FZRANO $
PAQH 152053Z AUTO 08017KT 10SM BKN025 BKN034 BKN042 02/00 A2874 RMK AO2 PK WND 08029/2009 PWINO FZRANO $
PAQH 151956Z AUTO 08021G26KT 10SM SCT022 BKN039 OVC075 02/M01 A2876 RMK AO2 PK WND 08026/1951 PRESFR SLP739 T00171006 PWINO FZRANO $
PAQH 151856Z AUTO 04016KT 10SM FEW024 BKN034 OVC085 01/M01 A2880 RMK AO2 PK WND 05026/1836 SLP754 T00111006 PWINO FZRANO $
PAQH 151828Z AUTO 05020KT 10SM SCT019 BKN038 OVC075 01/M01 A2881 RMK AO2 PWINO FZRANO $
PAQH 151556Z AUTO 04021KT 10SM FEW048 OVC065 02/M01 A2896 RMK AO2 PK WND 07029/1512 SLP808 T00171011 PWINO FZRANO $
PAQH 151456Z AUTO 06021KT 10SM SCT060 BKN075 OVC100 02/M02 A2902 RMK AO2 PRESFR SLP827 T00221017 58067 PWINO FZRANO $
PAQH 151356Z AUTO 03011KT 10SM BKN045 OVC100 01/M02 A2909 RMK AO2 PRESFR SLP851 T00111017 PWINO FZRANO $
PAQH 151256Z AUTO 33011KT 10SM BKN036 OVC047 01/M03 A2917 RMK AO2 PRESFR SLP876 T00061028 PWINO FZRANO $
PAQH 151056Z AUTO 36008KT 10SM OVC037 M02/M04 A2927 RMK AO2 SLP911 T10171039 PWINO FZRANO $
PAQH 150956Z AUTO 03011KT 10SM OVC035 M02/M03 A2932 RMK AO2 SLP929 T10171033 PWINO FZRANO $
PAQH 150856Z AUTO 06012KT 10SM SCT029 BKN035 M03/M04 A2935 RMK AO2 SLP939 T10281039 400001056 58026 PWINO FZRANO $
PAQH 150809Z AUTO 07011KT 10SM BKN026 M03/M04 A2938 RMK AO2 PWINO FZRANO $
PAQH 150756Z AUTO 07008KT 10SM FEW026 BKN044 M03/M04 A2939 RMK AO2 SLP952 T10281044 PWINO FZRANO $
PAQH 150656Z AUTO 09011KT 10SM FEW020 M02/M03 A2940 RMK AO2 SLP957 T10171028 PWINO FZRANO $
PAQH 150646Z AUTO 07013KT 10SM FEW020 SCT029 BKN036 M01/M02 A2940 RMK AO2 PWINO FZRANO $
PAQH 150635Z AUTO 07012KT 10SM BKN029 BKN036 M01/M01 A2941 RMK AO2 PWINO FZRANO $
PAQH 150556Z AUTO 09011KT 10SM SCT035 M02/M03 A2943 RMK AO2 SLP965 T10221028 10000 21056 58020 PWINO FZRANO $
PAQH 150456Z AUTO 10011KT 10SM SCT046 OVC055 M01/M01 A2945 RMK AO2 SLP972 T10061011 PWINO FZRANO $
PAQH 150356Z AUTO 09009KT 10SM BKN037 OVC065 M03/M03 A2947 RMK AO2 SLP981 T10281033 PWINO FZRANO $
PAQH 150256Z AUTO 09010KT 3SM BR FEW070 M05/M06 A2949 RMK AO2 SLP986 T10501056 55002 PWINO FZRANO $
PAQH 150252Z AUTO 09010KT 1 3/4SM BR SCT070 M05/M06 A2949 RMK AO2 PWINO FZRANO $
PAQH 150242Z AUTO 07007KT 1SM BR CLR M06/M06 A2949 RMK AO2 PWINO FZRANO $
PAQH 150224Z AUTO 07007KT 1 3/4SM BR CLR M04/M06 A2949 RMK AO2 VIS 1 1/4V5 PWINO FZRANO $
PAQH 150209Z AUTO 04006KT 10SM SCT020 M04/M04 A2949 RMK AO2 PWINO FZRANO $
PAQH 150156Z AUTO 36005KT 10SM BKN020 M03/M04 A2949 RMK AO2 SLP987 T10331039 PWINO FZRANO $
PAQH 150056Z AUTO 36007KT 10SM BKN024 M03/M04 A2949 RMK AO2 SLP988 T10281039 PWINO FZRANO $
PAQH 142356Z AUTO 34005KT 4SM BR BKN022 OVC033 M02/M02 A2951 RMK AO2 SLP994 T10171022 11017 21039 56008 PWINO FZRANO $
PAQH 142315Z AUTO 35003KT 5SM BR FEW009 BKN015 OVC025 M02/M03 A2952 RMK AO2 PWINO FZRANO $
PAQH 142304Z AUTO 35004KT 2SM BR FEW007 BKN015 OVC023 M02/M03 A2952 RMK AO2 PWINO FZRANO $
PAQH 142256Z AUTO 36004KT 3SM BR SCT015 BKN024 OVC032 M03/M03 A2952 RMK AO2 SLP997 T10281033 PWINO FZRANO $
PAQH 142243Z AUTO 01004KT 3SM BR BKN020 OVC029 M03/M03 A2952 RMK AO2 PWINO FZRANO $
PAQH 142235Z AUTO 36005KT 1 3/4SM BR OVC022 M03/M03 A2952 RMK AO2 PWINO FZRANO $
PAQH 142208Z AUTO 01006KT 10SM BKN023 OVC031 M03/M03 A2952 RMK AO2 PWINO FZRANO $
PAQH 142156Z AUTO 01005KT 10SM SCT020 BKN030 OVC044 M03/M03 A2953 RMK AO2 SLP998 T10281033 PWINO FZRANO $
PAQH 142113Z AUTO 02007KT 10SM SCT021 BKN034 OVC046 M03/M04 A2953 RMK AO2 PWINO FZRANO $
PAQH 142056Z AUTO 02007KT 9SM SCT022 BKN028 OVC044 M03/M04 A2954 RMK AO2 SLP002 T10331044 55005 PWINO FZRANO $
PAQH 142049Z AUTO 02007KT 5SM BR FEW020 BKN026 OVC034 M03/M04 A2954 RMK AO2 PWINO FZRANO $
PAQH 142040Z AUTO 02008KT 2SM BR FEW018 BKN028 OVC037 M03/M04 A2953 RMK AO2 PWINO FZRANO $
PAQH 142035Z AUTO 02008KT 1 3/4SM BR SCT018 SCT025 OVC035 M03/M04 A2953 RMK AO2 PWINO FZRANO $
PAQH 141956Z AUTO 02009KT 10SM OVC045 M04/M04 A2953 RMK AO2 SLP001 T10391044 PWINO FZRANO $
PAQH 141915Z AUTO 01009KT 10SM FEW019 OVC050 M04/M04 A2954 RMK AO2 PWINO FZRANO $
PAQH 141856Z AUTO 01010KT 6SM BR FEW022 BKN027 OVC055 M04/M04 A2954 RMK AO2 SLP004 T10391044 PWINO FZRANO $
PAQH 141756Z AUTO 36011KT 8SM FEW019 OVC029 M04/M04 A2955 RMK AO2 SLP007 T10391044 11033 21039 58011 PWINO FZRANO $
PAQH 141721Z AUTO 36010KT 10SM FEW018 BKN034 OVC040 M04/M04 A2956 RMK AO2 PWINO FZRANO $
PAQH 141656Z AUTO 36009KT 8SM FEW017 BKN028 OVC036 M04/M04 A2957 RMK AO2 SLP012 T10391044 PWINO FZRANO $
PAQH 141556Z AUTO 35006KT 4SM BR FEW013 OVC020 M04/M04 A2958 RMK AO2 SLP016 T10391044 PWINO FZRANO $
PAQH 141510Z AUTO 36009KT 3SM BR FEW013 BKN029 OVC033 M04/M04 A2958 RMK AO2 PWINO FZRANO $
PAQH 141456Z AUTO 36008KT 4SM BR SCT013 OVC030 M04/M04 A2958 RMK AO2 SLP018 T10391044 58009 PWINO FZRANO $
PAQH 141356Z AUTO 01007KT 10SM OVC025 M04/M04 A2960 RMK AO2 SLP022 T10391044 PWINO FZRANO $
PAQH 141304Z AUTO 01008KT 5SM BR FEW012 SCT019 OVC027 M04/M04 A2960 RMK AO2 PWINO FZRANO $
PAQH 141256Z AUTO 02008KT 2 1/2SM BR SCT010 SCT016 OVC027 M03/M04 A2960 RMK AO2 SLP024 T10331044 PWINO FZRANO $
PAQH 141219Z AUTO 35007KT 10SM OVC029 M03/M04 A2961 RMK AO2 PWINO FZRANO $
PAQH 141156Z AUTO 36006KT 10SM OVC033 M03/M04 A2961 RMK AO2 SLP027 T10331044 11022 21039 58003 PWINO FZRANO $